Accueil
METAR-TAF:

METAR-TAF

Aéroports :

Aéroport international de Norwich

Norwich, Angleterre

latitude: 52-38N, longitude: 001-18E, altitude: 14 m

Observation

Le bulletin a été fait il y a 43 minutes, à 22:50 UTC
Vent 13 kt de nord/nord-est
Température 5°C
Humidité 65%
Pression 1034 hPa
Visibilité 10 km ou plus

METAR: EGSH 282250Z AUTO 02013KT 9999 FEW004/// SCT034/// 05/M01 Q1034

Heure: 23:33 (23:33 UTC)

Prévision

Le bulletin a été fait il y a 3 heures et 31 minutes, à 20:02 UTC
Prévision valable du 28 à 21 UTC au 28 à 24 UTC
Vent 20 kt de nord/nord-est avec des rafales jusqu'à 30 kt
Visibilité 10 km ou plus
Nuages épars à une hauteur de 1800 ft
Probabilité 30% :
Temporairement
du 28 à 21 UTC au 28 à 24 UTC
Visibilité: 6000 m
averses de pluie

TAF: EGSH 282002Z 2821/2824 02020G30KT 9999 SCT018 PROB30 TEMPO 2821/2824 6000 SHRA

Observations et prévisions météorologiques de plus de 4000 aéroports (messages METAR et TAF).

Les stations disponibles sont représentées par des disques jaunes et rouges sur la carte.

Passer la souris dessus pour voir le nom de la station.

Cliquer dessus pour voir les observations et prévisions météorologiques.

Pour changer de carte: cliquez sur les boutons verts avec une croix noire pour zoomer, sur le bouton vert avec un tiret pour effectuer un zoom arrière, ou sur les flèches vertes pour les cartes adjacentes.


METAR-TAF: